Time,TemperatureF,DewpointF,PressureIn,WindDirection,WindDirectionDegrees,WindSpeedMPH,WindSpeedGustMPH,Humidity,HourlyPrecipIn,Conditions,Clouds,dailyrainin,SolarRadiationWatts/m^2,SoftwareType,DateUTC
2013-08-17 00:12:00,75.0,44.0,-100.00,ESE,108,2.0,17.0,33,0.00,,,0.00,0.000000,,2013-08-17 06:12:00,
2013-08-17 00:21:00,75.0,44.0,-100.00,ESE,108,2.0,17.0,33,0.00,,,0.00,0.000000,,2013-08-17 06:21:00,
2013-08-17 00:31:00,75.0,44.0,-100.00,ESE,108,2.0,17.0,33,0.00,,,0.00,0.000000,,2013-08-17 06:31:00,
2013-08-17 01:11:00,73.0,45.0,-100.00,NW,326,2.0,9.0,37,0.00,,,0.00,0.000000,,2013-08-17 07:11:00,
2013-08-17 01:21:00,73.0,45.0,-100.00,NW,326,2.0,9.0,37,0.00,,,0.00,0.000000,,2013-08-17 07:21:00,
2013-08-17 01:32:00,73.0,45.0,-100.00,NW,326,2.0,9.0,37,0.00,,,0.00,0.000000,,2013-08-17 07:32:00,
2013-08-17 01:41:00,73.0,45.0,-100.00,NW,326,2.0,9.0,37,0.00,,,0.00,0.000000,,2013-08-17 07:41:00,
2013-08-17 02:11:00,73.0,47.0,-100.00,North,355,4.0,12.0,39,0.00,,,0.00,0.000000,,2013-08-17 08:11:00,
2013-08-17 02:21:00,73.0,47.0,-100.00,North,355,4.0,12.0,39,0.00,,,0.00,0.000000,,2013-08-17 08:21:00,
2013-08-17 02:32:00,73.0,47.0,-100.00,North,355,4.0,12.0,39,0.00,,,0.00,0.000000,,2013-08-17 08:32:00,
2013-08-17 02:41:00,73.0,47.0,-100.00,North,355,4.0,12.0,39,0.00,,,0.00,0.000000,,2013-08-17 08:41:00,
2013-08-17 02:42:00,71.0,47.0,-100.00,WSW,248,2.0,12.0,43,0.00,,,0.00,0.000000,,2013-08-17 08:42:00,
2013-08-17 03:11:00,71.0,47.0,-100.00,WSW,248,2.0,12.0,43,0.00,,,0.00,0.000000,,2013-08-17 09:11:00,
2013-08-17 03:21:00,71.0,47.0,-100.00,WSW,248,2.0,12.0,43,0.00,,,0.00,0.000000,,2013-08-17 09:21:00,
2013-08-17 03:33:00,71.0,47.0,-100.00,WSW,248,2.0,12.0,43,0.00,,,0.00,0.000000,,2013-08-17 09:33:00,
2013-08-17 03:42:00,70.0,47.0,-100.00,West,272,1.0,10.0,44,0.00,,,0.00,0.000000,,2013-08-17 09:42:00,
2013-08-17 04:12:00,70.0,47.0,-100.00,West,272,1.0,10.0,44,0.00,,,0.00,0.000000,,2013-08-17 10:12:00,
2013-08-17 04:23:00,70.0,47.0,-100.00,West,272,1.0,10.0,44,0.00,,,0.00,0.000000,,2013-08-17 10:23:00,
2013-08-17 04:32:00,70.0,47.0,-100.00,West,272,1.0,10.0,44,0.00,,,0.00,0.000000,,2013-08-17 10:32:00,
2013-08-17 04:42:00,69.0,47.0,-100.00,North,354,4.0,7.0,46,0.00,,,0.00,0.000000,,2013-08-17 10:42:00,
2013-08-17 05:11:00,69.0,47.0,-100.00,North,354,4.0,7.0,46,0.00,,,0.00,0.000000,,2013-08-17 11:11:00,
2013-08-17 05:21:00,69.0,47.0,-100.00,North,354,4.0,7.0,46,0.00,,,0.00,0.000000,,2013-08-17 11:21:00,
2013-08-17 05:32:00,69.0,47.0,-100.00,North,354,4.0,7.0,46,0.00,,,0.00,0.000000,,2013-08-17 11:32:00,
2013-08-17 06:11:00,69.0,47.0,-100.00,NW,321,1.0,8.0,46,0.00,,,0.00,0.000000,,2013-08-17 12:11:00,
2013-08-17 06:21:00,69.0,47.0,-100.00,NW,321,1.0,8.0,46,0.00,,,0.00,0.000000,,2013-08-17 12:21:00,
2013-08-17 06:32:00,69.0,47.0,-100.00,NW,321,1.0,8.0,46,0.00,,,0.00,0.000000,,2013-08-17 12:32:00,
2013-08-17 06:41:00,69.0,47.0,-100.00,NW,321,1.0,8.0,46,0.00,,,0.00,0.000000,,2013-08-17 12:41:00,
2013-08-17 06:42:00,67.0,48.0,-100.00,NW,304,2.0,6.0,50,0.00,,,0.00,0.000000,,2013-08-17 12:42:00,
2013-08-17 07:11:00,67.0,48.0,-100.00,NW,304,2.0,6.0,50,0.00,,,0.00,0.000000,,2013-08-17 13:11:00,
2013-08-17 07:21:00,67.0,48.0,-100.00,NW,304,2.0,6.0,50,0.00,,,0.00,0.000000,,2013-08-17 13:21:00,
2013-08-17 07:32:00,67.0,48.0,-100.00,NW,304,2.0,6.0,50,0.00,,,0.00,0.000000,,2013-08-17 13:32:00,
2013-08-17 08:11:00,68.0,49.0,-100.00,NW,318,1.0,8.0,50,0.00,,,0.00,27.000000,,2013-08-17 14:11:00,
2013-08-17 08:21:00,68.0,49.0,-100.00,NW,318,1.0,8.0,50,0.00,,,0.00,27.000000,,2013-08-17 14:21:00,
2013-08-17 08:31:00,68.0,49.0,-100.00,NW,318,1.0,8.0,50,0.00,,,0.00,27.000000,,2013-08-17 14:31:00,
2013-08-17 08:41:00,68.0,49.0,-100.00,NW,318,1.0,8.0,50,0.00,,,0.00,27.000000,,2013-08-17 14:41:00,
2013-08-17 08:42:00,72.0,48.0,-100.00,SW,229,2.0,10.0,43,0.00,,,0.00,158.000000,,2013-08-17 14:42:00,
2013-08-17 09:11:00,72.0,48.0,-100.00,SW,229,2.0,10.0,43,0.00,,,0.00,158.000000,,2013-08-17 15:11:00,
2013-08-17 09:22:00,72.0,48.0,-100.00,SW,229,2.0,10.0,43,0.00,,,0.00,158.000000,,2013-08-17 15:22:00,
2013-08-17 09:33:00,72.0,48.0,-100.00,SW,229,2.0,10.0,43,0.00,,,0.00,158.000000,,2013-08-17 15:33:00,
2013-08-17 09:42:00,76.0,49.0,-100.00,SW,229,3.0,10.0,38,0.00,,,0.00,292.000000,,2013-08-17 15:42:00,
2013-08-17 10:12:00,76.0,49.0,-100.00,SW,229,3.0,10.0,38,0.00,,,0.00,292.000000,,2013-08-17 16:12:00,
2013-08-17 10:23:00,76.0,49.0,-100.00,SW,229,3.0,10.0,38,0.00,,,0.00,292.000000,,2013-08-17 16:23:00,
2013-08-17 10:33:00,76.0,49.0,-100.00,SW,229,3.0,10.0,38,0.00,,,0.00,292.000000,,2013-08-17 16:33:00,
2013-08-17 10:42:00,81.0,48.0,-100.00,NNE,19,3.0,12.0,32,0.00,,,0.00,482.000000,,2013-08-17 16:42:00,
2013-08-17 11:12:00,81.0,48.0,-100.00,NNE,19,3.0,12.0,32,0.00,,,0.00,482.000000,,2013-08-17 17:12:00,
2013-08-17 11:23:00,81.0,48.0,-100.00,NNE,19,3.0,12.0,32,0.00,,,0.00,482.000000,,2013-08-17 17:23:00,
2013-08-17 11:32:00,81.0,48.0,-100.00,NNE,19,3.0,12.0,32,0.00,,,0.00,482.000000,,2013-08-17 17:32:00,
2013-08-17 12:12:00,84.0,47.0,-100.00,NNW,328,3.0,10.0,28,0.00,,,0.00,618.000000,,2013-08-17 18:12:00,
2013-08-17 12:21:00,84.0,47.0,-100.00,NNW,328,3.0,10.0,28,0.00,,,0.00,618.000000,,2013-08-17 18:21:00,
2013-08-17 12:32:00,84.0,47.0,-100.00,NNW,328,3.0,10.0,28,0.00,,,0.00,618.000000,,2013-08-17 18:32:00,
2013-08-17 12:41:00,84.0,47.0,-100.00,NNW,328,3.0,10.0,28,0.00,,,0.00,618.000000,,2013-08-17 18:41:00,
2013-08-17 13:11:00,87.0,45.0,-100.00,WSW,252,4.0,12.0,23,0.00,,,0.00,732.000000,,2013-08-17 19:11:00,
2013-08-17 13:21:00,87.0,45.0,-100.00,WSW,252,4.0,12.0,23,0.00,,,0.00,732.000000,,2013-08-17 19:21:00,
2013-08-17 13:31:00,87.0,45.0,-100.00,WSW,252,4.0,12.0,23,0.00,,,0.00,732.000000,,2013-08-17 19:31:00,
2013-08-17 13:41:00,87.0,45.0,-100.00,WSW,252,4.0,12.0,23,0.00,,,0.00,732.000000,,2013-08-17 19:41:00,
2013-08-17 14:11:00,88.0,47.0,-100.00,SSW,192,6.0,16.0,24,0.00,,,0.00,652.000000,,2013-08-17 20:11:00,
2013-08-17 14:21:00,88.0,47.0,-100.00,SSW,192,6.0,16.0,24,0.00,,,0.00,652.000000,,2013-08-17 20:21:00,
2013-08-17 14:32:00,88.0,47.0,-100.00,SSW,192,6.0,16.0,24,0.00,,,0.00,652.000000,,2013-08-17 20:32:00,
2013-08-17 14:41:00,88.0,47.0,-100.00,SSW,192,6.0,16.0,24,0.00,,,0.00,652.000000,,2013-08-17 20:41:00,
2013-08-17 14:42:00,87.0,45.0,-100.00,South,182,8.0,14.0,23,0.00,,,0.00,515.000000,,2013-08-17 20:42:00,
2013-08-17 15:11:00,87.0,45.0,-100.00,South,182,8.0,14.0,23,0.00,,,0.00,515.000000,,2013-08-17 21:11:00,
2013-08-17 15:21:00,87.0,45.0,-100.00,South,182,8.0,14.0,23,0.00,,,0.00,515.000000,,2013-08-17 21:21:00,
2013-08-17 15:33:00,87.0,45.0,-100.00,South,182,8.0,14.0,23,0.00,,,0.00,515.000000,,2013-08-17 21:33:00,
2013-08-17 15:42:00,89.0,45.0,-100.00,SE,141,8.0,14.0,22,0.00,,,0.00,652.000000,,2013-08-17 21:42:00,
2013-08-17 16:13:00,89.0,45.0,-100.00,SE,141,8.0,14.0,22,0.00,,,0.00,652.000000,,2013-08-17 22:13:00,
2013-08-17 16:22:00,89.0,45.0,-100.00,SE,141,8.0,14.0,22,0.00,,,0.00,652.000000,,2013-08-17 22:22:00,
2013-08-17 16:32:00,89.0,45.0,-100.00,SE,141,8.0,14.0,22,0.00,,,0.00,652.000000,,2013-08-17 22:32:00,
2013-08-17 16:42:00,91.0,39.0,-100.00,South,178,13.0,22.0,16,0.00,,,0.00,714.000000,,2013-08-17 22:42:00,
2013-08-17 17:11:00,91.0,39.0,-100.00,South,178,13.0,22.0,16,0.00,,,0.00,714.000000,,2013-08-17 23:11:00,
2013-08-17 17:22:00,91.0,39.0,-100.00,South,178,13.0,22.0,16,0.00,,,0.00,714.000000,,2013-08-17 23:22:00,
2013-08-17 17:32:00,91.0,39.0,-100.00,South,178,13.0,22.0,16,0.00,,,0.00,714.000000,,2013-08-17 23:32:00,
2013-08-17 18:11:00,91.0,35.0,-100.00,South,177,12.0,22.0,14,0.00,,,0.00,625.000000,,2013-08-18 00:11:00,
2013-08-17 18:21:00,91.0,35.0,-100.00,South,177,12.0,22.0,14,0.00,,,0.00,625.000000,,2013-08-18 00:21:00,
2013-08-17 18:32:00,91.0,35.0,-100.00,South,177,12.0,22.0,14,0.00,,,0.00,625.000000,,2013-08-18 00:32:00,
2013-08-17 18:41:00,91.0,35.0,-100.00,South,177,12.0,22.0,14,0.00,,,0.00,625.000000,,2013-08-18 00:41:00,
2013-08-17 19:11:00,90.0,36.0,-100.00,SW,214,6.0,19.0,15,0.00,,,0.00,348.000000,,2013-08-18 01:11:00,
2013-08-17 19:21:00,90.0,36.0,-100.00,SW,214,6.0,19.0,15,0.00,,,0.00,348.000000,,2013-08-18 01:21:00,
2013-08-17 19:31:00,90.0,36.0,-100.00,SW,214,6.0,19.0,15,0.00,,,0.00,348.000000,,2013-08-18 01:31:00,
2013-08-17 19:41:00,90.0,36.0,-100.00,SW,214,6.0,19.0,15,0.00,,,0.00,348.000000,,2013-08-18 01:41:00,
2013-08-17 20:11:00,88.0,35.0,-100.00,SSW,203,5.0,13.0,15,0.00,,,-99.99,189.000000,,2013-08-18 02:11:00,
2013-08-17 20:21:00,88.0,35.0,-100.00,SSW,203,5.0,13.0,15,0.00,,,-99.99,189.000000,,2013-08-18 02:21:00,
2013-08-17 20:32:00,88.0,35.0,-100.00,SSW,203,5.0,13.0,15,0.00,,,-99.99,189.000000,,2013-08-18 02:32:00,
2013-08-17 20:41:00,88.0,35.0,-100.00,SSW,203,5.0,13.0,15,0.00,,,-99.99,189.000000,,2013-08-18 02:41:00,
2013-08-17 20:42:00,84.0,36.0,-100.00,North,349,4.0,8.0,18,0.00,,,0.00,23.000000,,2013-08-18 02:42:00,
2013-08-17 21:11:00,84.0,36.0,-100.00,North,349,4.0,8.0,18,0.00,,,0.00,23.000000,,2013-08-18 03:11:00,
2013-08-17 21:21:00,84.0,36.0,-100.00,North,349,4.0,8.0,18,0.00,,,0.00,23.000000,,2013-08-18 03:21:00,
2013-08-17 21:33:00,84.0,36.0,-100.00,North,349,4.0,8.0,18,0.00,,,0.00,23.000000,,2013-08-18 03:33:00,
2013-08-17 21:42:00,79.0,44.0,-100.00,WSW,253,3.0,9.0,29,0.00,,,0.00,1.000000,,2013-08-18 03:42:00,
2013-08-17 22:02:00,-999.0,-99.9,-100.00,WSW,253,3.0,9.0,-999,0.00,,,0.00,1.000000,,2013-08-18 04:02:00,
2013-08-17 22:12:00,79.0,44.0,-100.00,WSW,253,3.0,9.0,29,0.00,,,0.00,1.000000,,2013-08-18 04:12:00,
2013-08-17 22:23:00,79.0,44.0,-100.00,WSW,253,3.0,9.0,29,0.00,,,0.00,1.000000,,2013-08-18 04:23:00,
2013-08-17 22:32:00,79.0,44.0,-100.00,WSW,253,3.0,9.0,29,0.00,,,0.00,1.000000,,2013-08-18 04:32:00,
2013-08-17 22:42:00,76.0,47.0,-100.00,NNE,28,2.0,10.0,36,0.00,,,0.00,0.000000,,2013-08-18 04:42:00,
2013-08-17 23:12:00,76.0,47.0,-100.00,NNE,28,2.0,10.0,36,0.00,,,0.00,0.000000,,2013-08-18 05:12:00,
2013-08-17 23:22:00,76.0,47.0,-100.00,NNE,28,2.0,10.0,36,0.00,,,0.00,0.000000,,2013-08-18 05:22:00,
2013-08-17 23:33:00,76.0,47.0,-100.00,NNE,28,2.0,10.0,36,0.00,,,0.00,0.000000,,2013-08-18 05:33:00,